Aktualna pogoda na lotniskach (dane METAR)

 

EPGD - Gdansk/Rebiechow, Poland
Distance from station: ENE 44km
Updated: Mon, 23-Apr-2018 03:30 CEST
Clear
Clear
 Wind from SE
Wiatr: SE 4 km/h
Temperatura: 3°C
Punkt Rosy: 3°C
Wilgotność: 100%
Ciśnienie: 1014 hPa
Ogólnie: Clear
Widzialność: greater than 10 km
2018/04/23 01:30 EPGD 230130Z 14002KT CAVOK 03/03 Q1014
EPSC - Szczecin/Golenio, Poland
Distance from station: WSW 205km
Updated: Mon, 23-Apr-2018 03:30 CEST
Clear
Clear
 Wind from SE
Wiatr: SE 22 km/h
Temperatura: 13°C
Punkt Rosy: 7°C
Wilgotność: 67%
Ciśnienie: 1010 hPa
Ogólnie: Clear
Widzialność: greater than 10 km
2018/04/23 01:30 EPSC 230130Z 14012KT CAVOK 13/07 Q1010
 
EPPO - Poznan/Lawica, Poland
Distance from station: SSW 210km
Updated: Mon, 23-Apr-2018 03:30 CEST
Clear
Clear
 Wind from SE
Wiatr: SE 11 km/h
Temperatura: 10°C
Indeks Wychł.: 8°C
Punkt Rosy: 5°C
Wilgotność: 71%
Ciśnienie: 1013 hPa
Ogólnie: Clear
Widzialność: greater than 10 km
2018/04/23 01:30 EPPO 230130Z 13006KT CAVOK 10/05 Q1013
EPLL - Lodz/Lublinek, Poland
Distance from station: SSE 296km
Updated: Mon, 23-Apr-2018 03:30 CEST
Shallow fog, Partly cloudy
Shallow fog, Partly cloudy
 Wind from E
Wiatr: E 2 km/h
Temperatura: 6°C
Punkt Rosy: 5°C
Wilgotność: 93%
Ciśnienie: 1014 hPa
Ogólnie: Shallow Fog
Zachmurzenie: Partly Cloudy
Widzialność: 10 km
2018/04/23 01:30 EPLL 230130Z 08001KT 9999 MIFG NSC 06/05 Q1014
 
EPWA - Warsaw/Okecie, Poland
Distance from station: SE 307km
Updated: Mon, 23-Apr-2018 03:30 CEST
Clear
Clear
 Wind from varies
Wiatr: varies 2 km/h
Temperatura: 6°C
Punkt Rosy: 3°C
Wilgotność: 81%
Ciśnienie: 1015 hPa
Ogólnie: Clear
Widzialność: greater than 10 km
2018/04/23 01:30 EPWA 230130Z VRB01KT CAVOK 06/03 Q1015 NOSIG
EPWR - Wroclaw/Strachow, Poland
Distance from station: S 352km
Updated: Mon, 23-Apr-2018 03:30 CEST
Rain showers, Partly cloudy
Rain showers, Partly cloudy
 Wind from SE
Wiatr: SE 7 km/h
Temperatura: 10°C
Indeks Wychł.: 9°C
Punkt Rosy: 5°C
Wilgotność: 71%
Ciśnienie: 1013 hPa
Ogólnie: Rain Showers
Zachmurzenie: Partly Cloudy
Widzialność: 3 km
Szczegóły zachm.: Partly Cloudy 762 m
2018/04/23 01:30 EPWR 230130Z 14004KT 090V230 3200 SHRA SCT025CB 10/05 Q1013

Metar display script from Saratoga-Weather.org